sensor_id;sensor_type;location;lat;lon;timestamp;P1;durP1;ratioP1;P2;durP2;ratioP2
52126;SDS011;38120;53.176;6.614;2023-02-15T00:02:13;52.30;;;30.70;;
52126;SDS011;38120;53.176;6.614;2023-02-15T00:04:39;44.77;;;28.00;;
52126;SDS011;38120;53.176;6.614;2023-02-15T00:07:15;41.03;;;27.48;;
52126;SDS011;38120;53.176;6.614;2023-02-15T00:09:42;41.70;;;27.83;;
52126;SDS011;38120;53.176;6.614;2023-02-15T00:12:10;42.03;;;27.30;;
52126;SDS011;38120;53.176;6.614;2023-02-15T00:14:36;45.47;;;30.37;;
52126;SDS011;38120;53.176;6.614;2023-02-15T00:17:02;45.60;;;29.83;;
52126;SDS011;38120;53.176;6.614;2023-02-15T00:19:27;43.80;;;30.63;;
52126;SDS011;38120;53.176;6.614;2023-02-15T00:21:53;47.60;;;30.10;;
52126;SDS011;38120;53.176;6.614;2023-02-15T00:24:19;42.30;;;28.85;;
52126;SDS011;38120;53.176;6.614;2023-02-15T00:26:45;43.33;;;29.00;;
52126;SDS011;38120;53.176;6.614;2023-02-15T00:29:12;49.72;;;31.00;;
52126;SDS011;38120;53.176;6.614;2023-02-15T00:31:40;43.97;;;27.90;;
52126;SDS011;38120;53.176;6.614;2023-02-15T00:34:17;44.42;;;28.00;;
52126;SDS011;38120;53.176;6.614;2023-02-15T00:36:51;46.85;;;29.10;;
52126;SDS011;38120;53.176;6.614;2023-02-15T00:39:17;44.85;;;27.92;;
52126;SDS011;38120;53.176;6.614;2023-02-15T00:41:44;48.15;;;30.20;;
52126;SDS011;38120;53.176;6.614;2023-02-15T00:44:10;43.95;;;28.55;;
52126;SDS011;38120;53.176;6.614;2023-02-15T00:46:36;46.03;;;26.77;;
52126;SDS011;38120;53.176;6.614;2023-02-15T00:49:02;45.23;;;27.90;;
52126;SDS011;38120;53.176;6.614;2023-02-15T00:51:34;42.08;;;28.90;;
52126;SDS011;38120;53.176;6.614;2023-02-15T00:53:59;37.33;;;26.83;;
52126;SDS011;38120;53.176;6.614;2023-02-15T00:56:25;42.20;;;27.23;;
52126;SDS011;38120;53.176;6.614;2023-02-15T00:58:53;35.45;;;24.25;;
52126;SDS011;38120;53.176;6.614;2023-02-15T01:01:19;44.20;;;26.42;;
52126;SDS011;38120;53.176;6.614;2023-02-15T01:03:46;38.05;;;25.83;;
52126;SDS011;38120;53.176;6.614;2023-02-15T01:06:13;35.13;;;24.52;;
52126;SDS011;38120;53.176;6.614;2023-02-15T01:08:39;72.50;;;26.95;;
52126;SDS011;38120;53.176;6.614;2023-02-15T01:11:06;49.85;;;26.92;;
52126;SDS011;38120;53.176;6.614;2023-02-15T01:13:34;160.27;;;36.65;;
52126;SDS011;38120;53.176;6.614;2023-02-15T01:16:00;54.10;;;27.77;;
52126;SDS011;38120;53.176;6.614;2023-02-15T01:18:26;48.10;;;28.30;;
52126;SDS011;38120;53.176;6.614;2023-02-15T01:20:52;76.82;;;27.75;;
52126;SDS011;38120;53.176;6.614;2023-02-15T01:23:18;56.05;;;26.05;;
52126;SDS011;38120;53.176;6.614;2023-02-15T01:25:44;80.30;;;30.98;;
52126;SDS011;38120;53.176;6.614;2023-02-15T01:28:10;113.27;;;31.43;;
52126;SDS011;38120;53.176;6.614;2023-02-15T01:30:36;36.60;;;23.95;;
52126;SDS011;38120;53.176;6.614;2023-02-15T01:33:01;37.30;;;24.87;;
52126;SDS011;38120;53.176;6.614;2023-02-15T01:35:27;33.60;;;22.35;;
52126;SDS011;38120;53.176;6.614;2023-02-15T01:37:54;33.08;;;22.65;;
52126;SDS011;38120;53.176;6.614;2023-02-15T01:40:21;33.38;;;23.60;;
52126;SDS011;38120;53.176;6.614;2023-02-15T01:42:50;31.40;;;22.08;;
52126;SDS011;38120;53.176;6.614;2023-02-15T01:50:49;36.05;;;22.40;;
52126;SDS011;38120;53.176;6.614;2023-02-15T01:53:45;37.28;;;24.05;;
52126;SDS011;38120;53.176;6.614;2023-02-15T01:56:15;32.40;;;21.80;;
52126;SDS011;38120;53.176;6.614;2023-02-15T01:58:48;35.38;;;21.85;;
52126;SDS011;38120;53.176;6.614;2023-02-15T02:01:17;31.30;;;21.10;;
52126;SDS011;38120;53.176;6.614;2023-02-15T02:06:38;28.20;;;19.67;;
52126;SDS011;38120;53.176;6.614;2023-02-15T02:09:04;28.70;;;20.20;;
52126;SDS011;38120;53.176;6.614;2023-02-15T02:11:30;31.52;;;21.00;;
52126;SDS011;38120;53.176;6.614;2023-02-15T02:13:57;30.20;;;21.00;;
52126;SDS011;38120;53.176;6.614;2023-02-15T02:41:17;26.52;;;19.23;;
52126;SDS011;38120;53.176;6.614;2023-02-15T02:49:36;24.92;;;18.13;;
52126;SDS011;38120;53.176;6.614;2023-02-15T02:52:33;27.50;;;19.50;;
52126;SDS011;38120;53.176;6.614;2023-02-15T02:55:05;29.75;;;19.80;;
52126;SDS011;38120;53.176;6.614;2023-02-15T02:57:41;24.08;;;18.60;;
52126;SDS011;38120;53.176;6.614;2023-02-15T03:00:13;27.30;;;19.50;;
52126;SDS011;38120;53.176;6.614;2023-02-15T03:02:42;25.27;;;18.23;;
52126;SDS011;38120;53.176;6.614;2023-02-15T03:05:13;25.50;;;18.38;;
52126;SDS011;38120;53.176;6.614;2023-02-15T03:07:44;24.73;;;17.75;;
52126;SDS011;38120;53.176;6.614;2023-02-15T03:10:15;24.42;;;18.38;;
52126;SDS011;38120;53.176;6.614;2023-02-15T03:12:42;24.10;;;17.83;;
52126;SDS011;38120;53.176;6.614;2023-02-15T03:15:19;26.83;;;17.98;;
52126;SDS011;38120;53.176;6.614;2023-02-15T03:17:48;27.17;;;19.58;;
52126;SDS011;38120;53.176;6.614;2023-02-15T03:20:24;29.02;;;19.42;;
52126;SDS011;38120;53.176;6.614;2023-02-15T03:22:55;25.25;;;17.88;;
52126;SDS011;38120;53.176;6.614;2023-02-15T03:25:27;20.73;;;16.67;;
52126;SDS011;38120;53.176;6.614;2023-02-15T03:28:01;28.15;;;19.38;;
52126;SDS011;38120;53.176;6.614;2023-02-15T03:30:31;24.58;;;17.08;;
52126;SDS011;38120;53.176;6.614;2023-02-15T03:32:59;20.83;;;15.25;;
52126;SDS011;38120;53.176;6.614;2023-02-15T03:35:27;23.15;;;18.10;;
52126;SDS011;38120;53.176;6.614;2023-02-15T03:38:16;22.05;;;16.38;;
52126;SDS011;38120;53.176;6.614;2023-02-15T03:40:46;19.60;;;15.25;;
52126;SDS011;38120;53.176;6.614;2023-02-15T03:46:20;23.80;;;15.73;;
52126;SDS011;38120;53.176;6.614;2023-02-15T03:49:24;22.33;;;16.17;;
52126;SDS011;38120;53.176;6.614;2023-02-15T03:52:06;19.17;;;15.00;;
52126;SDS011;38120;53.176;6.614;2023-02-15T03:54:36;20.90;;;15.63;;
52126;SDS011;38120;53.176;6.614;2023-02-15T03:57:16;20.70;;;15.55;;
52126;SDS011;38120;53.176;6.614;2023-02-15T04:00:14;19.65;;;15.43;;
52126;SDS011;38120;53.176;6.614;2023-02-15T04:03:16;21.10;;;16.60;;
52126;SDS011;38120;53.176;6.614;2023-02-15T04:05:47;27.35;;;17.30;;
52126;SDS011;38120;53.176;6.614;2023-02-15T04:08:13;21.90;;;16.95;;
52126;SDS011;38120;53.176;6.614;2023-02-15T04:10:39;21.33;;;16.40;;
52126;SDS011;38120;53.176;6.614;2023-02-15T04:13:18;21.95;;;17.13;;
52126;SDS011;38120;53.176;6.614;2023-02-15T04:15:49;20.48;;;15.25;;
52126;SDS011;38120;53.176;6.614;2023-02-15T04:18:31;21.70;;;15.68;;
52126;SDS011;38120;53.176;6.614;2023-02-15T04:21:27;21.63;;;16.27;;
52126;SDS011;38120;53.176;6.614;2023-02-15T04:24:13;23.02;;;16.63;;
52126;SDS011;38120;53.176;6.614;2023-02-15T04:26:58;26.63;;;17.38;;
52126;SDS011;38120;53.176;6.614;2023-02-15T04:29:25;21.98;;;17.42;;
52126;SDS011;38120;53.176;6.614;2023-02-15T04:31:54;22.17;;;17.92;;
52126;SDS011;38120;53.176;6.614;2023-02-15T04:34:20;22.45;;;17.15;;
52126;SDS011;38120;53.176;6.614;2023-02-15T04:36:46;21.70;;;17.13;;
52126;SDS011;38120;53.176;6.614;2023-02-15T04:39:13;24.23;;;17.57;;
52126;SDS011;38120;53.176;6.614;2023-02-15T04:41:39;25.88;;;18.75;;
52126;SDS011;38120;53.176;6.614;2023-02-15T04:44:05;25.50;;;18.77;;
52126;SDS011;38120;53.176;6.614;2023-02-15T04:46:31;24.33;;;18.60;;
52126;SDS011;38120;53.176;6.614;2023-02-15T04:48:56;23.70;;;19.23;;
52126;SDS011;38120;53.176;6.614;2023-02-15T04:51:22;26.92;;;20.75;;
52126;SDS011;38120;53.176;6.614;2023-02-15T04:53:48;27.08;;;20.08;;
52126;SDS011;38120;53.176;6.614;2023-02-15T04:56:14;21.93;;;18.83;;
52126;SDS011;38120;53.176;6.614;2023-02-15T04:58:40;24.90;;;18.43;;
52126;SDS011;38120;53.176;6.614;2023-02-15T05:01:09;24.33;;;18.92;;
52126;SDS011;38120;53.176;6.614;2023-02-15T05:03:35;26.25;;;19.98;;
52126;SDS011;38120;53.176;6.614;2023-02-15T05:06:01;22.88;;;19.13;;
52126;SDS011;38120;53.176;6.614;2023-02-15T05:08:27;22.48;;;18.27;;
52126;SDS011;38120;53.176;6.614;2023-02-15T05:10:53;23.97;;;18.93;;
52126;SDS011;38120;53.176;6.614;2023-02-15T05:13:18;23.27;;;19.70;;
52126;SDS011;38120;53.176;6.614;2023-02-15T05:15:51;25.63;;;19.67;;
52126;SDS011;38120;53.176;6.614;2023-02-15T05:18:18;23.25;;;18.52;;
52126;SDS011;38120;53.176;6.614;2023-02-15T05:20:45;27.10;;;18.33;;
52126;SDS011;38120;53.176;6.614;2023-02-15T05:23:11;26.83;;;19.92;;
52126;SDS011;38120;53.176;6.614;2023-02-15T05:25:37;22.63;;;18.23;;
52126;SDS011;38120;53.176;6.614;2023-02-15T05:28:22;26.27;;;19.50;;
52126;SDS011;38120;53.176;6.614;2023-02-15T05:31:00;24.98;;;18.77;;
52126;SDS011;38120;53.176;6.614;2023-02-15T05:33:38;28.23;;;20.85;;
52126;SDS011;38120;53.176;6.614;2023-02-15T05:36:04;26.85;;;21.17;;
52126;SDS011;38120;53.176;6.614;2023-02-15T05:38:30;24.05;;;19.17;;
52126;SDS011;38120;53.176;6.614;2023-02-15T05:40:56;26.67;;;20.58;;
52126;SDS011;38120;53.176;6.614;2023-02-15T05:43:22;25.67;;;20.07;;
52126;SDS011;38120;53.176;6.614;2023-02-15T05:45:49;26.60;;;20.30;;
52126;SDS011;38120;53.176;6.614;2023-02-15T05:48:17;28.25;;;19.88;;
52126;SDS011;38120;53.176;6.614;2023-02-15T05:50:44;26.08;;;20.42;;
52126;SDS011;38120;53.176;6.614;2023-02-15T05:53:10;31.70;;;21.77;;
52126;SDS011;38120;53.176;6.614;2023-02-15T05:55:37;28.75;;;20.83;;
52126;SDS011;38120;53.176;6.614;2023-02-15T05:58:04;29.33;;;21.10;;
52126;SDS011;38120;53.176;6.614;2023-02-15T06:00:30;30.75;;;21.60;;
52126;SDS011;38120;53.176;6.614;2023-02-15T06:02:56;31.17;;;22.33;;
52126;SDS011;38120;53.176;6.614;2023-02-15T06:05:22;30.37;;;22.07;;
52126;SDS011;38120;53.176;6.614;2023-02-15T06:07:47;28.17;;;22.13;;
52126;SDS011;38120;53.176;6.614;2023-02-15T06:10:13;32.30;;;21.67;;
52126;SDS011;38120;53.176;6.614;2023-02-15T06:12:39;28.90;;;22.77;;
52126;SDS011;38120;53.176;6.614;2023-02-15T06:15:05;28.30;;;22.10;;
52126;SDS011;38120;53.176;6.614;2023-02-15T06:17:31;36.92;;;25.73;;
52126;SDS011;38120;53.176;6.614;2023-02-15T06:22:23;32.10;;;24.55;;
52126;SDS011;38120;53.176;6.614;2023-02-15T06:24:49;30.67;;;22.10;;
52126;SDS011;38120;53.176;6.614;2023-02-15T06:27:15;32.70;;;23.75;;
52126;SDS011;38120;53.176;6.614;2023-02-15T06:29:40;33.43;;;25.07;;
52126;SDS011;38120;53.176;6.614;2023-02-15T06:32:06;34.47;;;24.67;;
52126;SDS011;38120;53.176;6.614;2023-02-15T06:34:32;35.97;;;26.03;;
52126;SDS011;38120;53.176;6.614;2023-02-15T06:36:58;35.23;;;25.50;;
52126;SDS011;38120;53.176;6.614;2023-02-15T06:39:23;36.77;;;26.00;;
52126;SDS011;38120;53.176;6.614;2023-02-15T06:41:49;37.57;;;28.80;;
52126;SDS011;38120;53.176;6.614;2023-02-15T06:44:15;33.03;;;25.50;;
52126;SDS011;38120;53.176;6.614;2023-02-15T06:46:41;37.17;;;27.23;;
52126;SDS011;38120;53.176;6.614;2023-02-15T06:49:06;41.20;;;28.10;;
52126;SDS011;38120;53.176;6.614;2023-02-15T06:51:32;58.60;;;36.90;;
52126;SDS011;38120;53.176;6.614;2023-02-15T06:53:59;41.00;;;31.63;;
52126;SDS011;38120;53.176;6.614;2023-02-15T06:56:25;44.35;;;32.75;;
52126;SDS011;38120;53.176;6.614;2023-02-15T06:58:51;51.90;;;35.30;;
52126;SDS011;38120;53.176;6.614;2023-02-15T07:01:17;53.72;;;37.70;;
52126;SDS011;38120;53.176;6.614;2023-02-15T07:03:43;55.20;;;38.20;;
52126;SDS011;38120;53.176;6.614;2023-02-15T07:06:09;60.17;;;37.60;;
52126;SDS011;38120;53.176;6.614;2023-02-15T07:08:36;48.80;;;36.50;;
52126;SDS011;38120;53.176;6.614;2023-02-15T07:11:03;51.90;;;35.78;;
52126;SDS011;38120;53.176;6.614;2023-02-15T07:13:49;51.00;;;34.88;;
52126;SDS011;38120;53.176;6.614;2023-02-15T07:16:15;54.25;;;38.72;;
52126;SDS011;38120;53.176;6.614;2023-02-15T07:18:40;53.90;;;36.93;;
52126;SDS011;38120;53.176;6.614;2023-02-15T07:21:06;51.03;;;35.33;;
52126;SDS011;38120;53.176;6.614;2023-02-15T07:23:36;52.78;;;35.08;;
52126;SDS011;38120;53.176;6.614;2023-02-15T07:26:03;54.45;;;38.40;;
52126;SDS011;38120;53.176;6.614;2023-02-15T07:28:30;55.58;;;35.88;;
52126;SDS011;38120;53.176;6.614;2023-02-15T07:31:06;57.20;;;37.63;;
52126;SDS011;38120;53.176;6.614;2023-02-15T07:33:32;52.80;;;37.08;;
52126;SDS011;38120;53.176;6.614;2023-02-15T07:36:00;48.38;;;35.58;;
52126;SDS011;38120;53.176;6.614;2023-02-15T07:38:27;49.17;;;35.17;;
52126;SDS011;38120;53.176;6.614;2023-02-15T07:41:00;56.03;;;37.90;;
52126;SDS011;38120;53.176;6.614;2023-02-15T07:43:30;46.90;;;34.17;;
52126;SDS011;38120;53.176;6.614;2023-02-15T07:46:01;49.05;;;33.38;;
52126;SDS011;38120;53.176;6.614;2023-02-15T07:48:28;54.60;;;35.53;;
52126;SDS011;38120;53.176;6.614;2023-02-15T07:50:54;50.23;;;35.77;;
52126;SDS011;38120;53.176;6.614;2023-02-15T07:53:24;50.58;;;34.35;;
52126;SDS011;38120;53.176;6.614;2023-02-15T07:55:50;50.73;;;33.40;;
52126;SDS011;38120;53.176;6.614;2023-02-15T07:58:17;50.92;;;35.42;;
52126;SDS011;38120;53.176;6.614;2023-02-15T08:00:43;50.22;;;33.47;;
52126;SDS011;38120;53.176;6.614;2023-02-15T08:03:25;54.65;;;34.95;;
52126;SDS011;38120;53.176;6.614;2023-02-15T08:05:57;55.50;;;36.40;;
52126;SDS011;38120;53.176;6.614;2023-02-15T08:08:24;53.30;;;35.63;;
52126;SDS011;38120;53.176;6.614;2023-02-15T08:11:07;46.92;;;32.95;;
52126;SDS011;38120;53.176;6.614;2023-02-15T08:16:41;52.67;;;35.15;;
52126;SDS011;38120;53.176;6.614;2023-02-15T08:21:39;53.72;;;35.10;;
52126;SDS011;38120;53.176;6.614;2023-02-15T08:24:06;51.60;;;35.25;;
52126;SDS011;38120;53.176;6.614;2023-02-15T08:26:33;47.45;;;32.90;;
52126;SDS011;38120;53.176;6.614;2023-02-15T08:31:26;55.17;;;36.13;;
52126;SDS011;38120;53.176;6.614;2023-02-15T08:33:52;48.03;;;35.20;;
52126;SDS011;38120;53.176;6.614;2023-02-15T08:36:20;47.30;;;34.17;;
52126;SDS011;38120;53.176;6.614;2023-02-15T08:38:47;46.72;;;33.53;;
52126;SDS011;38120;53.176;6.614;2023-02-15T08:43:48;50.58;;;35.28;;
52126;SDS011;38120;53.176;6.614;2023-02-15T08:46:22;49.65;;;33.85;;
52126;SDS011;38120;53.176;6.614;2023-02-15T08:48:49;46.50;;;33.85;;
52126;SDS011;38120;53.176;6.614;2023-02-15T08:51:16;51.17;;;33.17;;
52126;SDS011;38120;53.176;6.614;2023-02-15T08:53:47;49.05;;;33.58;;
52126;SDS011;38120;53.176;6.614;2023-02-15T08:56:15;47.00;;;32.30;;
52126;SDS011;38120;53.176;6.614;2023-02-15T08:58:41;52.22;;;34.22;;
52126;SDS011;38120;53.176;6.614;2023-02-15T09:01:10;47.37;;;32.80;;
52126;SDS011;38120;53.176;6.614;2023-02-15T09:03:38;52.45;;;32.92;;
52126;SDS011;38120;53.176;6.614;2023-02-15T09:06:05;45.22;;;34.05;;
52126;SDS011;38120;53.176;6.614;2023-02-15T09:08:31;48.97;;;32.22;;
52126;SDS011;38120;53.176;6.614;2023-02-15T09:11:14;43.50;;;30.80;;
52126;SDS011;38120;53.176;6.614;2023-02-15T09:13:47;44.40;;;29.48;;
52126;SDS011;38120;53.176;6.614;2023-02-15T09:16:14;49.65;;;32.35;;
52126;SDS011;38120;53.176;6.614;2023-02-15T09:18:43;53.47;;;32.88;;
52126;SDS011;38120;53.176;6.614;2023-02-15T09:21:13;45.15;;;30.42;;
52126;SDS011;38120;53.176;6.614;2023-02-15T09:23:41;50.67;;;31.45;;
52126;SDS011;38120;53.176;6.614;2023-02-15T09:26:12;45.63;;;30.77;;
52126;SDS011;38120;53.176;6.614;2023-02-15T09:28:39;48.70;;;32.85;;
52126;SDS011;38120;53.176;6.614;2023-02-15T09:33:35;51.25;;;30.88;;
52126;SDS011;38120;53.176;6.614;2023-02-15T09:36:02;46.75;;;30.48;;
52126;SDS011;38120;53.176;6.614;2023-02-15T09:38:28;47.45;;;32.90;;
52126;SDS011;38120;53.176;6.614;2023-02-15T09:41:29;47.03;;;30.63;;
52126;SDS011;38120;53.176;6.614;2023-02-15T09:44:10;48.95;;;31.00;;
52126;SDS011;38120;53.176;6.614;2023-02-15T09:49:58;46.03;;;30.98;;
52126;SDS011;38120;53.176;6.614;2023-02-15T09:52:42;47.63;;;31.95;;
52126;SDS011;38120;53.176;6.614;2023-02-15T10:00:37;46.67;;;29.67;;
52126;SDS011;38120;53.176;6.614;2023-02-15T10:06:14;49.00;;;30.60;;
52126;SDS011;38120;53.176;6.614;2023-02-15T10:28:06;49.42;;;30.25;;
52126;SDS011;38120;53.176;6.614;2023-02-15T10:46:39;41.72;;;26.55;;
52126;SDS011;38120;53.176;6.614;2023-02-15T10:53:00;46.70;;;31.27;;
52126;SDS011;38120;53.176;6.614;2023-02-15T10:55:13;46.30;;;28.92;;
52126;SDS011;38120;53.176;6.614;2023-02-15T11:06:03;44.67;;;29.35;;
52126;SDS011;38120;53.176;6.614;2023-02-15T11:08:31;43.15;;;28.52;;
52126;SDS011;38120;53.176;6.614;2023-02-15T11:11:02;49.25;;;29.17;;
52126;SDS011;38120;53.176;6.614;2023-02-15T11:13:36;44.28;;;29.35;;
52126;SDS011;38120;53.176;6.614;2023-02-15T11:16:08;44.50;;;29.17;;
52126;SDS011;38120;53.176;6.614;2023-02-15T11:18:48;51.38;;;30.65;;
52126;SDS011;38120;53.176;6.614;2023-02-15T11:23:45;46.03;;;28.27;;
52126;SDS011;38120;53.176;6.614;2023-02-15T11:26:14;41.72;;;26.77;;
52126;SDS011;38120;53.176;6.614;2023-02-15T11:31:57;45.95;;;28.83;;
52126;SDS011;38120;53.176;6.614;2023-02-15T11:34:36;45.30;;;28.85;;
52126;SDS011;38120;53.176;6.614;2023-02-15T11:37:13;52.25;;;29.63;;
52126;SDS011;38120;53.176;6.614;2023-02-15T11:39:43;47.38;;;31.17;;
52126;SDS011;38120;53.176;6.614;2023-02-15T11:42:11;49.28;;;29.08;;
52126;SDS011;38120;53.176;6.614;2023-02-15T11:45:02;46.33;;;28.00;;
52126;SDS011;38120;53.176;6.614;2023-02-15T11:47:39;45.78;;;29.42;;
52126;SDS011;38120;53.176;6.614;2023-02-15T11:50:05;41.33;;;26.40;;
52126;SDS011;38120;53.176;6.614;2023-02-15T11:52:36;43.97;;;25.92;;
52126;SDS011;38120;53.176;6.614;2023-02-15T11:55:01;46.83;;;28.10;;
52126;SDS011;38120;53.176;6.614;2023-02-15T11:57:34;46.93;;;28.03;;
52126;SDS011;38120;53.176;6.614;2023-02-15T12:00:17;39.63;;;25.83;;
52126;SDS011;38120;53.176;6.614;2023-02-15T12:03:28;43.38;;;27.23;;
52126;SDS011;38120;53.176;6.614;2023-02-15T12:06:16;45.63;;;24.45;;
52126;SDS011;38120;53.176;6.614;2023-02-15T12:09:13;36.63;;;22.50;;
52126;SDS011;38120;53.176;6.614;2023-02-15T12:11:53;37.45;;;24.45;;
52126;SDS011;38120;53.176;6.614;2023-02-15T12:14:47;42.92;;;24.77;;
52126;SDS011;38120;53.176;6.614;2023-02-15T12:17:14;47.17;;;26.50;;
52126;SDS011;38120;53.176;6.614;2023-02-15T12:19:41;39.63;;;24.48;;
52126;SDS011;38120;53.176;6.614;2023-02-15T12:22:18;41.22;;;24.63;;
52126;SDS011;38120;53.176;6.614;2023-02-15T12:24:49;43.38;;;24.98;;
52126;SDS011;38120;53.176;6.614;2023-02-15T12:27:18;42.95;;;22.75;;
52126;SDS011;38120;53.176;6.614;2023-02-15T12:30:03;40.97;;;25.63;;
52126;SDS011;38120;53.176;6.614;2023-02-15T12:35:13;43.00;;;24.73;;
52126;SDS011;38120;53.176;6.614;2023-02-15T12:37:53;42.60;;;26.60;;
52126;SDS011;38120;53.176;6.614;2023-02-15T12:40:28;47.55;;;25.88;;
52126;SDS011;38120;53.176;6.614;2023-02-15T12:42:55;51.38;;;27.77;;
52126;SDS011;38120;53.176;6.614;2023-02-15T12:48:13;48.60;;;27.83;;
52126;SDS011;38120;53.176;6.614;2023-02-15T12:50:44;47.25;;;28.65;;
52126;SDS011;38120;53.176;6.614;2023-02-15T12:53:21;48.20;;;27.33;;
52126;SDS011;38120;53.176;6.614;2023-02-15T12:55:59;49.95;;;29.95;;
52126;SDS011;38120;53.176;6.614;2023-02-15T12:58:30;45.05;;;27.92;;
52126;SDS011;38120;53.176;6.614;2023-02-15T13:03:38;53.42;;;27.95;;
52126;SDS011;38120;53.176;6.614;2023-02-15T13:06:23;44.65;;;27.67;;
52126;SDS011;38120;53.176;6.614;2023-02-15T13:08:51;48.28;;;27.83;;
52126;SDS011;38120;53.176;6.614;2023-02-15T13:11:25;48.72;;;29.55;;
52126;SDS011;38120;53.176;6.614;2023-02-15T13:14:03;45.63;;;30.15;;
52126;SDS011;38120;53.176;6.614;2023-02-15T13:16:43;47.85;;;29.88;;
52126;SDS011;38120;53.176;6.614;2023-02-15T13:19:15;47.05;;;28.85;;
52126;SDS011;38120;53.176;6.614;2023-02-15T13:21:49;49.25;;;29.95;;
52126;SDS011;38120;53.176;6.614;2023-02-15T13:24:19;48.80;;;28.73;;
52126;SDS011;38120;53.176;6.614;2023-02-15T13:26:58;45.65;;;29.25;;
52126;SDS011;38120;53.176;6.614;2023-02-15T13:29:33;50.03;;;31.27;;
52126;SDS011;38120;53.176;6.614;2023-02-15T13:32:12;47.92;;;29.83;;
52126;SDS011;38120;53.176;6.614;2023-02-15T13:34:49;45.45;;;27.60;;
52126;SDS011;38120;53.176;6.614;2023-02-15T13:37:21;44.08;;;27.38;;
52126;SDS011;38120;53.176;6.614;2023-02-15T13:40:02;47.90;;;29.60;;
52126;SDS011;38120;53.176;6.614;2023-02-15T13:42:37;49.75;;;28.83;;
52126;SDS011;38120;53.176;6.614;2023-02-15T13:55:17;44.35;;;29.42;;
52126;SDS011;38120;53.176;6.614;2023-02-15T13:59:46;46.33;;;28.83;;
52126;SDS011;38120;53.176;6.614;2023-02-15T14:10:51;44.05;;;27.15;;
52126;SDS011;38120;53.176;6.614;2023-02-15T14:19:33;51.72;;;28.65;;
52126;SDS011;38120;53.176;6.614;2023-02-15T14:22:07;44.33;;;27.10;;
52126;SDS011;38120;53.176;6.614;2023-02-15T14:28:27;42.17;;;25.63;;
52126;SDS011;38120;53.176;6.614;2023-02-15T14:30:49;36.70;;;23.92;;
52126;SDS011;38120;53.176;6.614;2023-02-15T14:36:04;34.67;;;23.40;;
52126;SDS011;38120;53.176;6.614;2023-02-15T14:46:50;36.30;;;22.95;;
52126;SDS011;38120;53.176;6.614;2023-02-15T14:49:38;35.75;;;23.42;;
52126;SDS011;38120;53.176;6.614;2023-02-15T14:52:09;39.33;;;23.05;;
52126;SDS011;38120;53.176;6.614;2023-02-15T14:59:45;52.97;;;24.93;;
52126;SDS011;38120;53.176;6.614;2023-02-15T15:02:18;36.97;;;22.98;;
52126;SDS011;38120;53.176;6.614;2023-02-15T15:05:19;37.53;;;23.05;;
52126;SDS011;38120;53.176;6.614;2023-02-15T15:10:36;37.97;;;22.88;;
52126;SDS011;38120;53.176;6.614;2023-02-15T15:18:50;39.67;;;25.17;;
52126;SDS011;38120;53.176;6.614;2023-02-15T15:32:44;42.40;;;25.00;;
52126;SDS011;38120;53.176;6.614;2023-02-15T15:49:10;37.85;;;25.27;;
52126;SDS011;38120;53.176;6.614;2023-02-15T15:51:41;40.92;;;25.85;;
52126;SDS011;38120;53.176;6.614;2023-02-15T15:54:12;38.90;;;24.52;;
52126;SDS011;38120;53.176;6.614;2023-02-15T15:56:58;44.67;;;25.42;;
52126;SDS011;38120;53.176;6.614;2023-02-15T15:59:28;39.27;;;25.43;;
52126;SDS011;38120;53.176;6.614;2023-02-15T16:02:05;46.47;;;27.77;;
52126;SDS011;38120;53.176;6.614;2023-02-15T16:04:33;38.58;;;25.02;;
52126;SDS011;38120;53.176;6.614;2023-02-15T16:10:00;39.90;;;25.33;;
52126;SDS011;38120;53.176;6.614;2023-02-15T16:12:34;45.85;;;26.98;;
52126;SDS011;38120;53.176;6.614;2023-02-15T16:15:18;38.90;;;24.65;;
52126;SDS011;38120;53.176;6.614;2023-02-15T16:17:50;41.75;;;26.42;;
52126;SDS011;38120;53.176;6.614;2023-02-15T16:28:58;39.50;;;24.75;;
52126;SDS011;38120;53.176;6.614;2023-02-15T16:31:23;43.42;;;26.40;;
52126;SDS011;38120;53.176;6.614;2023-02-15T16:33:52;43.17;;;26.90;;
52126;SDS011;38120;53.176;6.614;2023-02-15T16:36:28;37.33;;;25.48;;
52126;SDS011;38120;53.176;6.614;2023-02-15T16:41:26;45.38;;;26.65;;
52126;SDS011;38120;53.176;6.614;2023-02-15T16:43:54;40.97;;;26.17;;
52126;SDS011;38120;53.176;6.614;2023-02-15T16:46:25;37.15;;;25.48;;
52126;SDS011;38120;53.176;6.614;2023-02-15T16:48:52;46.45;;;28.13;;
52126;SDS011;38120;53.176;6.614;2023-02-15T16:51:23;43.78;;;29.17;;
52126;SDS011;38120;53.176;6.614;2023-02-15T16:53:51;47.72;;;28.98;;
52126;SDS011;38120;53.176;6.614;2023-02-15T16:56:22;45.85;;;29.63;;
52126;SDS011;38120;53.176;6.614;2023-02-15T16:58:51;44.75;;;28.73;;
52126;SDS011;38120;53.176;6.614;2023-02-15T17:01:20;44.45;;;27.15;;
52126;SDS011;38120;53.176;6.614;2023-02-15T17:03:49;45.90;;;28.15;;
52126;SDS011;38120;53.176;6.614;2023-02-15T17:06:21;43.40;;;28.40;;
52126;SDS011;38120;53.176;6.614;2023-02-15T17:08:51;44.92;;;28.63;;
52126;SDS011;38120;53.176;6.614;2023-02-15T17:11:20;46.22;;;28.05;;
52126;SDS011;38120;53.176;6.614;2023-02-15T17:19:20;43.95;;;27.50;;
52126;SDS011;38120;53.176;6.614;2023-02-15T17:21:53;45.90;;;28.92;;
52126;SDS011;38120;53.176;6.614;2023-02-15T17:26:56;42.90;;;28.35;;
52126;SDS011;38120;53.176;6.614;2023-02-15T17:29:28;46.92;;;31.27;;
52126;SDS011;38120;53.176;6.614;2023-02-15T17:32:16;44.05;;;27.20;;
52126;SDS011;38120;53.176;6.614;2023-02-15T17:39:56;48.35;;;29.30;;
52126;SDS011;38120;53.176;6.614;2023-02-15T17:42:23;47.78;;;28.88;;
52126;SDS011;38120;53.176;6.614;2023-02-15T17:44:50;44.20;;;27.70;;
52126;SDS011;38120;53.176;6.614;2023-02-15T17:47:20;46.97;;;29.08;;
52126;SDS011;38120;53.176;6.614;2023-02-15T17:49:49;43.13;;;27.20;;
52126;SDS011;38120;53.176;6.614;2023-02-15T17:52:15;46.45;;;28.38;;
52126;SDS011;38120;53.176;6.614;2023-02-15T17:54:42;44.08;;;27.77;;
52126;SDS011;38120;53.176;6.614;2023-02-15T17:57:28;46.13;;;27.50;;
52126;SDS011;38120;53.176;6.614;2023-02-15T17:59:55;43.72;;;26.58;;
52126;SDS011;38120;53.176;6.614;2023-02-15T18:02:40;50.30;;;28.70;;
52126;SDS011;38120;53.176;6.614;2023-02-15T18:05:25;46.85;;;27.80;;
52126;SDS011;38120;53.176;6.614;2023-02-15T18:08:13;49.35;;;27.13;;
52126;SDS011;38120;53.176;6.614;2023-02-15T18:10:59;40.88;;;25.48;;
52126;SDS011;38120;53.176;6.614;2023-02-15T18:13:44;40.88;;;26.08;;
52126;SDS011;38120;53.176;6.614;2023-02-15T18:16:11;40.92;;;26.38;;
52126;SDS011;38120;53.176;6.614;2023-02-15T18:18:43;42.38;;;26.02;;
52126;SDS011;38120;53.176;6.614;2023-02-15T18:21:10;49.63;;;28.10;;
52126;SDS011;38120;53.176;6.614;2023-02-15T18:23:37;45.63;;;26.63;;
52126;SDS011;38120;53.176;6.614;2023-02-15T18:26:03;49.78;;;27.95;;
52126;SDS011;38120;53.176;6.614;2023-02-15T18:28:29;46.25;;;27.60;;
52126;SDS011;38120;53.176;6.614;2023-02-15T18:30:56;39.33;;;26.58;;
52126;SDS011;38120;53.176;6.614;2023-02-15T18:36:00;44.17;;;27.42;;
52126;SDS011;38120;53.176;6.614;2023-02-15T18:38:27;49.38;;;26.48;;
52126;SDS011;38120;53.176;6.614;2023-02-15T18:40:53;46.13;;;25.98;;
52126;SDS011;38120;53.176;6.614;2023-02-15T18:43:19;50.40;;;26.73;;
52126;SDS011;38120;53.176;6.614;2023-02-15T18:45:47;35.90;;;25.83;;